Terminal Aerodrome Forecast
Issued by NWS Sioux Falls, SD

Home | Current Version | Previous Version | Text Only | Print | Product List | Glossary On
Versions: 1 2 3 4 5 6 7 8 9 10 11 12 13 14 15 16 17 18 19 20 21 22 23 24 25
792
FTUS43 KFSD 300520
TAFSUX
TAF
KSUX 300520Z 3006/0106 03017G25KT P6SM RA OVC050
     FM301100 02021G29KT P6SM RA OVC020
     FM301900 03024G32KT 2SM RA OVC008
     FM010000 02018KT 2SM RA OVC008
     FM010300 35013KT 4SM RA OVC008=

USA.gov is the U.S. government's official web portal to all federal, state and local government web resources and services.